LFCK/DCM METAR and TAF weather

Enter ICAO airport designator
Station Type Date Time Source
LFCK METAR 2019/06/18 15:30 UTC NOAA

LFCK 181530Z AUTO 11018KT CAVOK 30/13 Q1011 TEMPO 12015G25KT


Station Type Date Time Source
LFCK Decoded METAR 2019/06/18 15:30 UTC NOAA

Station name not available
Jun 18, 2019 - 11:30 AM EDT / 2019.06.18 1530 UTC
Wind: from the ESE (110 degrees) at 21 MPH (18 KT):0
Visibility: greater than 7 mile(s):0
Temperature: 86 F (30 C)
Dew Point: 55 F (13 C)
Relative Humidity: 35%
Pressure (altimeter): 29.85 in. Hg (1011 hPa)
ob: LFCK 181530Z AUTO 11018KT CAVOK 30/13 Q1011 TEMPO 12015G25KT
cycle: 15

Station Type Date Time Source
LFCK TAF UTC NOAA

Error!

Example: see airport list